createdAt,value
2022-10-08T00:00:48.764Z,97527.00
2022-10-08T00:01:50.321Z,97528.88
2022-10-08T00:02:53.684Z,97526.47
2022-10-08T00:03:56.825Z,97523.41
2022-10-08T00:04:58.489Z,97525.28
2022-10-08T00:06:04.899Z,97526.47
2022-10-08T00:07:07.140Z,97521.50
2022-10-08T00:08:09.889Z,97518.09
2022-10-08T00:09:11.427Z,97522.84
2022-10-08T00:10:12.940Z,97521.06
2022-10-08T00:11:17.247Z,97521.66
2022-10-08T00:12:18.764Z,97513.25
2022-10-08T00:13:20.953Z,97512.78
2022-10-08T00:14:23.435Z,97515.59
2022-10-08T00:15:25.013Z,97518.88
2022-10-08T00:16:30.019Z,97513.50
2022-10-08T00:17:31.664Z,97504.78
2022-10-08T00:18:33.172Z,97509.50
2022-10-08T00:19:34.779Z,97506.50
2022-10-08T00:20:36.281Z,97503.00
2022-10-08T00:21:39.308Z,97507.72
2022-10-08T00:22:41.261Z,97511.78
2022-10-08T00:23:44.056Z,97508.91
2022-10-08T00:24:46.541Z,97509.00
2022-10-08T00:25:48.125Z,97508.56
2022-10-08T00:26:50.864Z,97499.84
2022-10-08T00:27:52.425Z,97506.94
2022-10-08T00:28:57.110Z,97504.19
2022-10-08T00:29:58.961Z,97503.00
2022-10-08T00:31:07.499Z,97506.72
2022-10-08T00:32:09.081Z,97504.22
2022-10-08T00:33:10.616Z,97509.94
2022-10-08T00:34:15.994Z,97507.44
2022-10-08T00:35:17.500Z,97506.97
2022-10-08T00:36:19.031Z,97507.28
2022-10-08T00:37:20.678Z,97507.28
2022-10-08T00:38:22.195Z,97504.88
2022-10-08T00:39:24.852Z,97506.09
2022-10-08T00:40:26.468Z,97504.69
2022-10-08T00:41:30.492Z,97508.53
2022-10-08T00:42:32.032Z,97499.94
2022-10-08T00:43:46.115Z,97504.25
2022-10-08T00:44:50.042Z,97508.28
2022-10-08T00:45:51.616Z,97497.28
2022-10-08T00:46:53.620Z,97498.13
2022-10-08T00:47:56.312Z,97503.16
2022-10-08T00:49:13.857Z,97496.38
2022-10-08T00:50:18.372Z,97491.78
2022-10-08T00:51:19.904Z,97499.31
2022-10-08T00:52:22.710Z,97498.53
2022-10-08T00:53:24.364Z,97496.47
2022-10-08T00:54:25.927Z,97489.34
2022-10-08T00:55:29.155Z,97489.16
2022-10-08T00:56:35.976Z,97491.00
2022-10-08T00:57:38.632Z,97491.31
2022-10-08T00:58:42.983Z,97488.47
2022-10-08T00:59:44.543Z,97491.63
2022-10-08T01:00:47.744Z,97490.97
2022-10-08T01:01:49.583Z,97489.69
2022-10-08T01:02:52.134Z,97492.84
2022-10-08T01:03:54.272Z,97481.94
2022-10-08T01:04:55.967Z,97487.81
2022-10-08T01:06:15.295Z,97494.94
2022-10-08T01:07:20.537Z,97493.69
2022-10-08T01:08:32.052Z,97502.81
2022-10-08T01:09:40.711Z,97489.00
2022-10-08T01:11:01.569Z,97495.47
2022-10-08T01:12:15.883Z,97495.59
2022-10-08T01:13:31.211Z,97489.59
2022-10-08T01:14:32.670Z,97490.59
2022-10-08T01:15:50.015Z,97484.31
2022-10-08T01:16:58.318Z,97495.44
2022-10-08T01:18:44.429Z,97481.56
2022-10-08T01:20:17.325Z,97487.44
2022-10-08T01:21:24.599Z,97492.03
2022-10-08T01:22:50.905Z,97487.94
2022-10-08T01:24:05.977Z,97482.09
2022-10-08T01:25:34.653Z,97479.41
2022-10-08T01:26:39.286Z,97483.22
2022-10-08T01:27:47.919Z,97481.13
2022-10-08T01:29:01.283Z,97480.78
2022-10-08T01:30:07.309Z,97477.75
2022-10-08T01:31:20.498Z,97481.84
2022-10-08T01:32:29.822Z,97479.47
2022-10-08T01:33:43.244Z,97474.38
2022-10-08T01:34:49.837Z,97479.41
2022-10-08T01:35:57.645Z,97478.56
2022-10-08T01:37:01.267Z,97481.53
2022-10-08T01:38:07.127Z,97477.06
2022-10-08T01:39:13.322Z,97483.84
2022-10-08T01:40:22.511Z,97475.09
2022-10-08T01:41:26.315Z,97480.28
2022-10-08T01:42:32.207Z,97477.41
2022-10-08T01:43:38.435Z,97470.31
2022-10-08T01:44:49.508Z,97478.88
2022-10-08T01:45:58.955Z,97474.84
2022-10-08T01:47:05.375Z,97470.72
2022-10-08T01:48:14.853Z,97465.59
2022-10-08T01:49:22.705Z,97475.72
2022-10-08T01:50:30.657Z,97464.28
2022-10-08T01:51:41.954Z,97471.25
2022-10-08T01:52:50.422Z,97472.56
2022-10-08T01:53:53.135Z,97466.06
2022-10-08T01:54:59.821Z,97461.94
2022-10-08T01:56:04.432Z,97464.28
2022-10-08T01:57:09.390Z,97465.06
2022-10-08T01:58:21.894Z,97465.75
2022-10-08T01:59:31.191Z,97471.25
2022-10-08T02:00:34.713Z,97468.69
2022-10-08T02:02:00.665Z,97470.06
2022-10-08T02:03:02.915Z,97474.44
2022-10-08T02:04:23.376Z,97467.97
2022-10-08T02:05:29.792Z,97470.97
2022-10-08T02:06:37.232Z,97474.00
2022-10-08T02:07:43.369Z,97471.53
2022-10-08T02:08:44.989Z,97473.63
2022-10-08T02:10:01.068Z,97470.47
2022-10-08T02:11:02.612Z,97468.88
2022-10-08T02:12:04.996Z,97467.19
2022-10-08T02:13:06.902Z,97469.28
2022-10-08T02:14:08.492Z,97472.75
2022-10-08T02:15:23.405Z,97474.34
2022-10-08T02:16:29.625Z,97468.81
2022-10-08T02:18:06.228Z,97469.53
2022-10-08T02:19:15.202Z,97473.34
2022-10-08T02:20:26.474Z,97476.22
2022-10-08T02:21:29.710Z,97471.69
2022-10-08T02:23:03.743Z,97469.38
2022-10-08T02:24:14.555Z,97469.09
2022-10-08T02:25:21.574Z,97470.06
2022-10-08T02:26:31.962Z,97466.59
2022-10-08T02:27:43.917Z,97466.91
2022-10-08T02:29:00.756Z,97467.25
2022-10-08T02:30:09.898Z,97471.06
2022-10-08T02:31:45.019Z,97472.34
2022-10-08T02:32:57.936Z,97473.59
2022-10-08T02:34:09.829Z,97468.59
2022-10-08T02:35:19.254Z,97468.75
2022-10-08T02:36:28.427Z,97473.53
2022-10-08T02:37:40.470Z,97466.00
2022-10-08T02:38:50.440Z,97460.97
2022-10-08T02:39:59.901Z,97460.22
2022-10-08T02:41:05.357Z,97465.78
2022-10-08T02:42:11.690Z,97460.75
2022-10-08T02:43:20.389Z,97464.66
2022-10-08T02:44:36.947Z,97460.88
2022-10-08T02:45:46.485Z,97460.88
2022-10-08T02:46:53.404Z,97469.41
2022-10-08T02:48:04.071Z,97462.78
2022-10-08T02:49:10.720Z,97456.59
2022-10-08T02:50:17.897Z,97458.00
2022-10-08T02:51:19.828Z,97458.28
2022-10-08T02:52:27.226Z,97461.44
2022-10-08T02:53:30.019Z,97457.78
2022-10-08T02:54:37.897Z,97461.06
2022-10-08T02:56:08.652Z,97460.44
2022-10-08T02:57:20.035Z,97455.34
2022-10-08T02:58:22.107Z,97456.25
2022-10-08T02:59:25.287Z,97456.13
2022-10-08T03:00:35.300Z,97461.53
2022-10-08T03:01:44.450Z,97458.38
2022-10-08T03:03:02.005Z,97467.09
2022-10-08T03:04:24.015Z,97465.50
2022-10-08T03:05:27.198Z,97466.44
2022-10-08T03:06:30.082Z,97463.31
2022-10-08T03:07:33.924Z,97468.03
2022-10-08T03:08:39.186Z,97461.22
2022-10-08T03:09:44.521Z,97467.72
2022-10-08T03:10:47.095Z,97466.00
2022-10-08T03:11:49.497Z,97466.63
2022-10-08T03:12:51.025Z,97464.16
2022-10-08T03:13:58.679Z,97463.69
2022-10-08T03:15:01.278Z,97468.31
2022-10-08T03:16:07.227Z,97465.16
2022-10-08T03:17:11.787Z,97458.34
2022-10-08T03:18:13.523Z,97460.38
2022-10-08T03:19:17.707Z,97463.78
2022-10-08T03:20:19.508Z,97461.25
2022-10-08T03:21:21.193Z,97457.94
2022-10-08T03:22:24.099Z,97464.84
2022-10-08T03:23:25.672Z,97464.22
2022-10-08T03:24:27.245Z,97464.69
2022-10-08T03:25:28.864Z,97461.06
2022-10-08T03:26:30.396Z,97463.94
2022-10-08T03:27:31.957Z,97460.50
2022-10-08T03:28:33.861Z,97457.34
2022-10-08T03:29:35.623Z,97462.56
2022-10-08T03:30:37.401Z,97466.53
2022-10-08T03:31:39.204Z,97462.13
2022-10-08T03:32:40.710Z,97461.81
2022-10-08T03:33:42.227Z,97464.41
2022-10-08T03:34:43.779Z,97457.78
2022-10-08T03:35:46.630Z,97454.81
2022-10-08T03:36:48.160Z,97456.22
2022-10-08T03:37:51.607Z,97461.88
2022-10-08T03:38:53.188Z,97453.38
2022-10-08T03:39:54.700Z,97453.38
2022-10-08T03:40:58.170Z,97457.47
2022-10-08T03:41:59.709Z,97454.03
2022-10-08T03:43:01.227Z,97458.09
2022-10-08T03:44:03.211Z,97454.66
2022-10-08T03:45:05.705Z,97460.28
2022-10-08T03:46:08.869Z,97453.84
2022-10-08T03:47:10.434Z,97460.16
2022-10-08T03:48:11.922Z,97454.91
2022-10-08T03:49:13.607Z,97452.06
2022-10-08T03:50:15.126Z,97451.06
2022-10-08T03:51:18.447Z,97456.75
2022-10-08T03:52:19.961Z,97451.53
2022-10-08T03:53:22.573Z,97460.19
2022-10-08T03:54:24.335Z,97452.47
2022-10-08T03:55:25.868Z,97450.28
2022-10-08T03:56:27.565Z,97457.25
2022-10-08T03:57:29.093Z,97453.34
2022-10-08T03:58:30.872Z,97456.50
2022-10-08T03:59:32.409Z,97457.50
2022-10-08T04:00:33.932Z,97460.34
2022-10-08T04:01:35.608Z,97458.59
2022-10-08T04:02:37.211Z,97457.47
2022-10-08T04:03:38.861Z,97458.28
2022-10-08T04:04:40.425Z,97460.00
2022-10-08T04:05:49.137Z,97459.06
2022-10-08T04:06:50.702Z,97464.28
2022-10-08T04:07:52.292Z,97458.13
2022-10-08T04:08:56.023Z,97461.13
2022-10-08T04:09:57.540Z,97459.38
2022-10-08T04:11:03.820Z,97467.28
2022-10-08T04:12:05.447Z,97470.56
2022-10-08T04:13:06.985Z,97475.28
2022-10-08T04:14:08.598Z,97470.06
2022-10-08T04:15:10.458Z,97471.28
2022-10-08T04:16:15.127Z,97474.13
2022-10-08T04:17:16.721Z,97474.41
2022-10-08T04:18:18.515Z,97472.19
2022-10-08T04:19:20.035Z,97470.13
2022-10-08T04:20:21.543Z,97474.41
2022-10-08T04:21:23.114Z,97473.75
2022-10-08T04:22:24.686Z,97477.38
2022-10-08T04:23:26.859Z,97467.97
2022-10-08T04:24:28.356Z,97466.06
2022-10-08T04:25:29.948Z,97470.94
2022-10-08T04:26:31.716Z,97469.34
2022-10-08T04:27:33.234Z,97470.28
2022-10-08T04:28:39.641Z,97471.38
2022-10-08T04:29:41.210Z,97469.50
2022-10-08T04:30:42.744Z,97475.34
2022-10-08T04:31:44.333Z,97471.56
2022-10-08T04:32:46.193Z,97476.13
2022-10-08T04:33:48.023Z,97481.34
2022-10-08T04:34:49.557Z,97476.59
2022-10-08T04:35:51.109Z,97479.09
2022-10-08T04:36:52.619Z,97472.75
2022-10-08T04:37:54.122Z,97480.00
2022-10-08T04:38:55.655Z,97475.91
2022-10-08T04:39:57.184Z,97477.50
2022-10-08T04:41:10.640Z,97477.81
2022-10-08T04:42:12.123Z,97475.00
2022-10-08T04:43:16.256Z,97472.81
2022-10-08T04:44:17.784Z,97479.75
2022-10-08T04:45:19.382Z,97470.28
2022-10-08T04:46:22.386Z,97477.22
2022-10-08T04:47:23.978Z,97476.59
2022-10-08T04:48:25.577Z,97481.63
2022-10-08T04:49:28.938Z,97478.50
2022-10-08T04:50:30.454Z,97481.22
2022-10-08T04:51:32.075Z,97478.06
2022-10-08T04:52:33.596Z,97471.94
2022-10-08T04:53:35.703Z,97477.63
2022-10-08T04:54:37.276Z,97481.75
2022-10-08T04:55:38.778Z,97475.13
2022-10-08T04:56:40.363Z,97480.81
2022-10-08T04:57:41.902Z,97473.72
2022-10-08T04:58:44.654Z,97478.44
2022-10-08T05:00:13.130Z,97478.41
2022-10-08T05:01:10.367Z,97481.69
2022-10-08T05:02:11.980Z,97486.56
2022-10-08T05:03:14.250Z,97482.94
2022-10-08T05:04:15.888Z,97479.28
2022-10-08T05:05:17.436Z,97486.06
2022-10-08T05:06:22.784Z,97483.88
2022-10-08T05:07:24.450Z,97485.25
2022-10-08T05:08:26.055Z,97486.69
2022-10-08T05:09:27.598Z,97491.25
2022-10-08T05:10:29.122Z,97489.03
2022-10-08T05:11:32.448Z,97492.22
2022-10-08T05:12:33.967Z,97491.47
2022-10-08T05:13:35.950Z,97493.84
2022-10-08T05:14:37.513Z,97490.91
2022-10-08T05:15:39.076Z,97496.75
2022-10-08T05:16:40.633Z,97488.72
2022-10-08T05:17:42.169Z,97492.81
2022-10-08T05:18:44.358Z,97493.13
2022-10-08T05:19:45.956Z,97493.41
2022-10-08T05:20:47.485Z,97497.78
2022-10-08T05:21:49.003Z,97496.69
2022-10-08T05:22:50.712Z,97497.22
2022-10-08T05:24:11.920Z,97497.25
2022-10-08T05:25:13.944Z,97498.50
2022-10-08T05:26:41.143Z,97497.88
2022-10-08T05:27:43.957Z,97497.69
2022-10-08T05:28:49.721Z,97493.75
2022-10-08T05:29:51.229Z,97497.50
2022-10-08T05:30:52.803Z,97493.53
2022-10-08T05:31:54.366Z,97496.56
2022-10-08T05:32:55.929Z,97497.63
2022-10-08T05:33:57.698Z,97494.97
2022-10-08T05:34:59.226Z,97494.34
2022-10-08T05:36:04.209Z,97494.97
2022-10-08T05:37:05.750Z,97493.72
2022-10-08T05:38:07.298Z,97488.34
2022-10-08T05:39:08.910Z,97501.59
2022-10-08T05:40:10.929Z,97496.34
2022-10-08T05:41:23.413Z,97489.34
2022-10-08T05:42:24.920Z,97494.16
2022-10-08T05:43:26.437Z,97487.97
2022-10-08T05:44:27.959Z,97500.97
2022-10-08T05:45:29.490Z,97497.72
2022-10-08T05:46:33.673Z,97500.22
2022-10-08T05:47:35.242Z,97502.22
2022-10-08T05:48:37.192Z,97500.25
2022-10-08T05:49:38.785Z,97503.00
2022-10-08T05:50:40.305Z,97499.94
2022-10-08T05:51:41.867Z,97501.63
2022-10-08T05:52:43.407Z,97500.91
2022-10-08T05:53:47.519Z,97496.81
2022-10-08T05:54:49.056Z,97495.59
2022-10-08T05:55:59.799Z,97496.91
2022-10-08T05:57:01.362Z,97501.78
2022-10-08T05:58:02.893Z,97494.97
2022-10-08T05:59:04.554Z,97500.81
2022-10-08T06:00:06.635Z,97501.03
2022-10-08T06:01:13.017Z,97497.44
2022-10-08T06:02:14.585Z,97490.03
2022-10-08T06:03:16.124Z,97506.66
2022-10-08T06:04:18.729Z,97498.13
2022-10-08T06:05:20.374Z,97499.69
2022-10-08T06:06:23.146Z,97497.91
2022-10-08T06:07:24.829Z,97493.19
2022-10-08T06:08:26.477Z,97487.44
2022-10-08T06:09:28.075Z,97497.13
2022-10-08T06:10:32.099Z,97492.06
2022-10-08T06:11:35.513Z,97494.28
2022-10-08T06:12:37.017Z,97496.53
2022-10-08T06:13:38.734Z,97490.69
2022-10-08T06:14:40.849Z,97494.72
2022-10-08T06:15:42.354Z,97488.16
2022-10-08T06:16:43.905Z,97480.75
2022-10-08T06:17:45.481Z,97488.13
2022-10-08T06:18:47.181Z,97477.31
2022-10-08T06:19:48.765Z,97488.09
2022-10-08T06:20:50.717Z,97490.84
2022-10-08T06:21:52.245Z,97482.88
2022-10-08T06:22:53.791Z,97483.72
2022-10-08T06:24:00.977Z,97474.44
2022-10-08T06:25:02.485Z,97478.25
2022-10-08T06:26:09.926Z,97483.47
2022-10-08T06:27:11.770Z,97478.47
2022-10-08T06:28:14.027Z,97478.56
2022-10-08T06:29:18.262Z,97476.59
2022-10-08T06:30:19.853Z,97476.16
2022-10-08T06:31:22.033Z,97478.16
2022-10-08T06:32:23.638Z,97472.81
2022-10-08T06:33:25.224Z,97469.47
2022-10-08T06:34:26.819Z,97466.09
2022-10-08T06:35:30.284Z,97465.72
2022-10-08T06:36:33.591Z,97474.88
2022-10-08T06:37:35.317Z,97475.06
2022-10-08T06:38:36.902Z,97470.00
2022-10-08T06:39:38.458Z,97465.50
2022-10-08T06:40:40.885Z,97470.22
2022-10-08T06:41:42.518Z,97467.59
2022-10-08T06:42:44.232Z,97466.59
2022-10-08T06:43:46.156Z,97465.13
2022-10-08T06:44:47.702Z,97467.47
2022-10-08T06:45:49.305Z,97479.72
2022-10-08T06:46:50.876Z,97470.28
2022-10-08T06:47:52.403Z,97477.34
2022-10-08T06:48:54.006Z,97467.47
2022-10-08T06:49:55.569Z,97466.44
2022-10-08T06:51:02.089Z,97471.91
2022-10-08T06:52:03.624Z,97469.50
2022-10-08T06:53:07.535Z,97469.81
2022-10-08T06:54:09.104Z,97471.94
2022-10-08T06:55:10.619Z,97469.50
2022-10-08T06:56:14.908Z,97474.66
2022-10-08T06:57:16.537Z,97478.06
2022-10-08T06:58:18.031Z,97470.91
2022-10-08T06:59:19.542Z,97465.75
2022-10-08T07:00:21.132Z,97464.25
2022-10-08T07:01:30.347Z,97467.53
2022-10-08T07:02:34.449Z,97471.09
2022-10-08T07:03:36.668Z,97460.19
2022-10-08T07:04:38.341Z,97464.56
2022-10-08T07:05:40.115Z,97472.19
2022-10-08T07:06:41.654Z,97464.19
2022-10-08T07:07:43.191Z,97469.56
2022-10-08T07:08:45.536Z,97460.09
2022-10-08T07:09:47.061Z,97474.75
2022-10-08T07:10:50.022Z,97462.09
2022-10-08T07:11:51.611Z,97461.34
2022-10-08T07:12:53.180Z,97459.41
2022-10-08T07:13:55.945Z,97457.03
2022-10-08T07:14:57.476Z,97456.59
2022-10-08T07:16:07.806Z,97461.75
2022-10-08T07:17:09.421Z,97456.81
2022-10-08T07:18:12.697Z,97453.72
2022-10-08T07:19:15.248Z,97461.13
2022-10-08T07:20:16.918Z,97457.75
2022-10-08T07:21:20.720Z,97455.19
2022-10-08T07:22:22.845Z,97460.56
2022-10-08T07:23:24.583Z,97457.34
2022-10-08T07:24:26.111Z,97459.34
2022-10-08T07:25:27.632Z,97454.59
2022-10-08T07:26:33.159Z,97453.25
2022-10-08T07:27:34.733Z,97448.13
2022-10-08T07:28:38.144Z,97448.53
2022-10-08T07:29:39.803Z,97441.69
2022-10-08T07:30:41.353Z,97446.78
2022-10-08T07:31:42.915Z,97446.50
2022-10-08T07:32:44.711Z,97447.91
2022-10-08T07:33:46.614Z,97444.28
2022-10-08T07:34:48.130Z,97444.75
2022-10-08T07:35:49.698Z,97441.19
2022-10-08T07:36:51.295Z,97446.69
2022-10-08T07:37:52.814Z,97443.06
2022-10-08T07:38:56.366Z,97444.03
2022-10-08T07:39:57.875Z,97442.72
2022-10-08T07:40:59.404Z,97442.72
2022-10-08T07:42:00.896Z,97439.94
2022-10-08T07:43:03.291Z,97441.91
2022-10-08T07:44:06.017Z,97438.88
2022-10-08T07:45:08.159Z,97433.00
2022-10-08T07:46:11.747Z,97439.63
2022-10-08T07:47:13.408Z,97439.78
2022-10-08T07:48:16.457Z,97436.03
2022-10-08T07:49:19.395Z,97439.38
2022-10-08T07:50:21.616Z,97435.88
2022-10-08T07:51:23.301Z,97434.88
2022-10-08T07:52:24.789Z,97438.19
2022-10-08T07:53:26.287Z,97433.63
2022-10-08T07:54:27.807Z,97432.56
2022-10-08T07:55:29.596Z,97434.78
2022-10-08T07:56:31.948Z,97426.75
2022-10-08T07:57:33.594Z,97427.97
2022-10-08T07:58:36.194Z,97425.00
2022-10-08T07:59:37.684Z,97426.69
2022-10-08T08:00:42.895Z,97427.19
2022-10-08T08:01:44.982Z,97428.78
2022-10-08T08:02:48.860Z,97420.97
2022-10-08T08:03:55.797Z,97418.38
2022-10-08T08:04:57.428Z,97418.16
2022-10-08T08:06:12.533Z,97419.19
2022-10-08T08:07:14.825Z,97412.84
2022-10-08T08:08:16.544Z,97412.16
2022-10-08T08:09:18.664Z,97412.28
2022-10-08T08:10:20.209Z,97409.50
2022-10-08T08:11:24.010Z,97398.69
2022-10-08T08:12:25.550Z,97402.88
2022-10-08T08:13:31.873Z,97402.78
2022-10-08T08:14:37.427Z,97406.94
2022-10-08T08:15:38.992Z,97409.34
2022-10-08T08:16:40.700Z,97405.78
2022-10-08T08:17:42.374Z,97404.81
2022-10-08T08:18:46.637Z,97400.56
2022-10-08T08:19:48.166Z,97402.44
2022-10-08T08:20:49.723Z,97401.38
2022-10-08T08:21:51.303Z,97393.31
2022-10-08T08:22:52.882Z,97397.28
2022-10-08T08:23:59.550Z,97395.75
2022-10-08T08:25:01.064Z,97400.94
2022-10-08T08:26:04.412Z,97399.72
2022-10-08T08:27:05.945Z,97400.19
2022-10-08T08:28:07.510Z,97404.19
2022-10-08T08:29:15.382Z,97396.81
2022-10-08T08:30:16.960Z,97396.81
2022-10-08T08:31:24.420Z,97402.28
2022-10-08T08:32:28.659Z,97393.88
2022-10-08T08:33:30.301Z,97398.97
2022-10-08T08:34:31.893Z,97397.53
2022-10-08T08:35:33.605Z,97399.75
2022-10-08T08:36:37.719Z,97389.84
2022-10-08T08:37:39.229Z,97396.81
2022-10-08T08:38:40.776Z,97392.50
2022-10-08T08:39:42.312Z,97390.09
2022-10-08T08:40:43.879Z,97393.03
2022-10-08T08:41:53.727Z,97390.94
2022-10-08T08:42:56.769Z,97389.53
2022-10-08T08:44:23.441Z,97383.47
2022-10-08T08:45:48.776Z,97382.13
2022-10-08T08:47:24.660Z,97375.44
2022-10-08T08:48:33.348Z,97372.06
2022-10-08T08:49:52.057Z,97375.75
2022-10-08T08:50:56.320Z,97376.91
2022-10-08T08:52:01.357Z,97377.44
2022-10-08T08:53:05.037Z,97366.28
2022-10-08T08:54:06.586Z,97367.06
2022-10-08T08:55:17.200Z,97365.34
2022-10-08T08:56:23.091Z,97364.56
2022-10-08T08:57:42.439Z,97370.06
2022-10-08T08:59:08.473Z,97374.59
2022-10-08T09:00:18.028Z,97361.34
2022-10-08T09:01:36.306Z,97360.13
2022-10-08T09:02:47.391Z,97365.09
2022-10-08T09:03:55.904Z,97359.03
2022-10-08T09:05:08.305Z,97355.81
2022-10-08T09:06:14.581Z,97350.28
2022-10-08T09:07:21.790Z,97355.22
2022-10-08T09:08:35.877Z,97352.38
2022-10-08T09:09:42.866Z,97352.50
2022-10-08T09:10:49.842Z,97349.44
2022-10-08T09:11:51.414Z,97348.78
2022-10-08T09:12:53.927Z,97350.31
2022-10-08T09:14:14.624Z,97348.31
2022-10-08T09:15:29.129Z,97341.38
2022-10-08T09:16:30.700Z,97346.53
2022-10-08T09:17:35.633Z,97331.09
2022-10-08T09:18:37.865Z,97339.72
2022-10-08T09:19:40.530Z,97338.91
2022-10-08T09:20:42.568Z,97336.53
2022-10-08T09:21:44.090Z,97339.69
2022-10-08T09:22:46.366Z,97336.53
2022-10-08T09:23:48.140Z,97331.75
2022-10-08T09:24:59.399Z,97325.44
2022-10-08T09:26:04.611Z,97326.19
2022-10-08T09:27:14.746Z,97322.41
2022-10-08T09:28:38.014Z,97317.00
2022-10-08T09:29:39.697Z,97321.31
2022-10-08T09:30:45.078Z,97315.91
2022-10-08T09:31:48.896Z,97316.78
2022-10-08T09:32:55.079Z,97317.25
2022-10-08T09:34:13.244Z,97304.81
2022-10-08T09:35:15.910Z,97306.38
2022-10-08T09:36:29.311Z,97300.13
2022-10-08T09:37:30.864Z,97310.22
2022-10-08T09:38:39.206Z,97301.59
2022-10-08T09:40:26.724Z,97294.66
2022-10-08T09:41:30.255Z,97296.28
2022-10-08T09:42:31.817Z,97295.91
2022-10-08T09:43:35.588Z,97284.25
2022-10-08T09:44:59.044Z,97284.25
2022-10-08T09:46:11.187Z,97291.63
2022-10-08T09:47:18.986Z,97294.78
2022-10-08T09:48:28.534Z,97290.09
2022-10-08T09:49:33.087Z,97292.03
2022-10-08T09:50:37.425Z,97292.81
2022-10-08T09:51:42.735Z,97286.94
2022-10-08T09:52:45.250Z,97284.22
2022-10-08T09:53:54.867Z,97284.59
2022-10-08T09:55:07.117Z,97286.16
2022-10-08T09:56:10.215Z,97286.94
2022-10-08T09:57:17.658Z,97279.97
2022-10-08T09:58:19.780Z,97279.97
2022-10-08T09:59:25.103Z,97283.47
2022-10-08T10:00:35.530Z,97275.25
2022-10-08T10:01:45.837Z,97277.09
2022-10-08T10:02:54.455Z,97276.69
2022-10-08T10:03:58.665Z,97270.56
2022-10-08T10:05:02.291Z,97272.84
2022-10-08T10:06:04.399Z,97265.47
2022-10-08T10:07:06.483Z,97269.03
2022-10-08T10:08:46.457Z,97262.81
2022-10-08T10:09:57.240Z,97257.75
2022-10-08T10:10:59.251Z,97259.72
2022-10-08T10:12:06.797Z,97256.56
2022-10-08T10:13:25.281Z,97254.22
2022-10-08T10:14:42.771Z,97255.00
2022-10-08T10:15:49.516Z,97244.91
2022-10-08T10:16:59.503Z,97252.22
2022-10-08T10:18:13.813Z,97245.97
2022-10-08T10:19:20.357Z,97244.00
2022-10-08T10:20:30.205Z,97237.78
2022-10-08T10:21:44.984Z,97236.63
2022-10-08T10:23:10.703Z,97230.38
2022-10-08T10:24:30.218Z,97227.66
2022-10-08T10:25:56.179Z,97232.41
2022-10-08T10:27:15.734Z,97221.53
2022-10-08T10:28:33.807Z,97220.75
2022-10-08T10:29:49.919Z,97214.53
2022-10-08T10:31:03.424Z,97214.53
2022-10-08T10:32:36.914Z,97217.25
2022-10-08T10:33:49.710Z,97214.53
2022-10-08T10:35:03.573Z,97206.75
2022-10-08T10:36:10.685Z,97206.00
2022-10-08T10:37:25.574Z,97212.19
2022-10-08T10:38:29.644Z,97205.97
2022-10-08T10:39:52.835Z,97209.47
2022-10-08T10:41:09.707Z,97202.84
2022-10-08T10:42:33.806Z,97204.41
2022-10-08T10:43:48.136Z,97196.63
2022-10-08T10:45:17.299Z,97190.00
2022-10-08T10:46:33.505Z,97197.41
2022-10-08T10:47:35.056Z,97191.56
2022-10-08T10:48:36.586Z,97191.94
2022-10-08T10:49:42.139Z,97184.19
2022-10-08T10:51:01.310Z,97179.44
2022-10-08T10:52:21.497Z,97185.66
2022-10-08T10:53:30.486Z,97184.84
2022-10-08T10:54:54.038Z,97177.88
2022-10-08T10:56:07.372Z,97176.31
2022-10-08T10:57:18.399Z,97178.72
2022-10-08T10:58:25.653Z,97177.16
2022-10-08T10:59:59.886Z,97167.03
2022-10-08T11:01:22.782Z,97160.81
2022-10-08T11:02:46.917Z,97167.06
2022-10-08T11:03:51.345Z,97161.19
2022-10-08T11:05:11.681Z,97160.41
2022-10-08T11:06:38.247Z,97163.13
2022-10-08T11:07:49.900Z,97155.38
2022-10-08T11:08:55.962Z,97149.91
2022-10-08T11:10:07.295Z,97151.06
2022-10-08T11:11:18.181Z,97149.50
2022-10-08T11:12:46.030Z,97146.00
2022-10-08T11:13:56.868Z,97145.59
2022-10-08T11:15:22.351Z,97142.88
2022-10-08T11:16:39.373Z,97142.03
2022-10-08T11:17:44.009Z,97141.25
2022-10-08T11:18:54.401Z,97135.41
2022-10-08T11:20:39.569Z,97139.72
2022-10-08T11:21:47.026Z,97133.50
2022-10-08T11:23:03.583Z,97129.97
2022-10-08T11:24:42.725Z,97130.38
2022-10-08T11:26:22.424Z,97129.63
2022-10-08T11:27:42.482Z,97122.97
2022-10-08T11:28:56.418Z,97119.06
2022-10-08T11:30:14.195Z,97114.00
2022-10-08T11:31:31.274Z,97113.97
2022-10-08T11:32:34.000Z,97113.59
2022-10-08T11:33:36.816Z,97109.28
2022-10-08T11:34:40.257Z,97105.34
2022-10-08T11:36:04.509Z,97105.34
2022-10-08T11:37:45.765Z,97100.66
2022-10-08T11:39:00.054Z,97095.25
2022-10-08T11:40:10.560Z,97096.06
2022-10-08T11:41:27.459Z,97095.25
2022-10-08T11:43:01.964Z,97097.22
2022-10-08T11:44:07.659Z,97082.00
2022-10-08T11:45:24.317Z,97086.66
2022-10-08T11:46:31.779Z,97082.28
2022-10-08T11:47:48.545Z,97080.28
2022-10-08T11:48:50.717Z,97077.94
2022-10-08T11:49:55.795Z,97071.59
2022-10-08T11:51:18.895Z,97071.56
2022-10-08T11:52:20.456Z,97075.44
2022-10-08T11:53:22.669Z,97068.41
2022-10-08T11:54:34.719Z,97066.88
2022-10-08T11:55:37.353Z,97066.13
2022-10-08T11:56:51.707Z,97057.94
2022-10-08T11:58:09.638Z,97064.94
2022-10-08T11:59:30.196Z,97048.91
2022-10-08T12:00:42.948Z,97049.28
2022-10-08T12:01:52.981Z,97048.13
2022-10-08T12:02:56.201Z,97052.88
2022-10-08T12:04:08.689Z,97045.13
2022-10-08T12:05:49.333Z,97045.09
2022-10-08T12:07:06.401Z,97046.22
2022-10-08T12:08:08.137Z,97034.97
2022-10-08T12:09:24.597Z,97041.16
2022-10-08T12:10:38.763Z,97040.38
2022-10-08T12:11:40.363Z,97034.16
2022-10-08T12:12:50.907Z,97034.94
2022-10-08T12:14:11.074Z,97035.00
2022-10-08T12:15:24.762Z,97030.38
2022-10-08T12:16:49.235Z,97028.00
2022-10-08T12:17:56.705Z,97027.59
2022-10-08T12:18:59.054Z,97028.00
2022-10-08T12:20:03.452Z,97021.41
2022-10-08T12:21:17.181Z,97022.97
2022-10-08T12:22:18.653Z,97018.31
2022-10-08T12:23:20.108Z,97010.09
2022-10-08T12:25:03.881Z,97017.03
2022-10-08T12:26:37.446Z,97013.88
2022-10-08T12:27:50.329Z,97007.59
2022-10-08T12:28:51.911Z,97009.16
2022-10-08T12:30:03.873Z,97017.66
2022-10-08T12:31:17.609Z,97010.16
2022-10-08T12:32:19.352Z,97008.94
2022-10-08T12:33:21.543Z,97004.31
2022-10-08T12:34:23.465Z,97003.63
2022-10-08T12:35:40.503Z,97005.59
2022-10-08T12:36:52.298Z,96992.69
2022-10-08T12:38:05.044Z,96994.97
2022-10-08T12:39:18.261Z,97004.34
2022-10-08T12:40:33.737Z,96996.94
2022-10-08T12:41:38.264Z,96984.00
2022-10-08T12:42:41.133Z,96985.91
2022-10-08T12:44:02.767Z,96993.75
2022-10-08T12:45:34.265Z,96981.97
2022-10-08T12:46:58.787Z,96988.16
2022-10-08T12:48:00.373Z,96986.59
2022-10-08T12:49:17.038Z,96984.25
2022-10-08T12:50:48.181Z,96983.88
2022-10-08T12:52:12.815Z,96988.66
2022-10-08T12:53:17.553Z,96986.00
2022-10-08T12:54:23.042Z,96981.63
2022-10-08T12:55:24.797Z,96984.69
2022-10-08T12:56:29.088Z,96984.59
2022-10-08T12:57:38.058Z,96985.28
2022-10-08T12:58:39.710Z,96979.75
2022-10-08T12:59:42.323Z,96983.56
2022-10-08T13:00:45.021Z,96974.53
2022-10-08T13:01:48.171Z,96978.13
2022-10-08T13:03:11.830Z,96976.63
2022-10-08T13:04:26.439Z,96970.44
2022-10-08T13:05:36.876Z,96969.72
2022-10-08T13:06:38.481Z,96969.84